Time;durP1;ratioP1;P1;durP2;ratioP2;P2;SDS_P1;SDS_P2;PMS_P1;PMS_P2;Temp;Humidity;BMP_temperature;BMP_pressure;BME280_temperature;BME280_humidity;BME280_pressure;Samples;Min_cycle;Max_cycle;Signal;HPM_P1;HPM_P2
2023/06/12 00:02:08;;;;;;;7.10;6.60;;;26.70;39.70;;;;;;5011482;28;20237;-49
2023/06/12 00:04:34;;;;;;;6.93;6.37;;;26.40;39.80;;;;;;5011239;28;20197;-49
2023/06/12 00:07:01;;;;;;;7.13;6.43;;;26.20;40.70;;;;;;5016920;28;20570;-49
2023/06/12 00:09:28;;;;;;;7.37;6.47;;;25.90;40.70;;;;;;5012264;28;20202;-49
2023/06/12 00:11:53;;;;;;;7.17;6.60;;;25.60;41.20;;;;;;5012106;28;20468;-51
2023/06/12 00:14:20;;;;;;;6.80;6.20;;;25.60;41.30;;;;;;5008052;28;20491;-48
2023/06/12 00:16:45;;;;;;;7.03;6.43;;;25.60;41.60;;;;;;5014664;28;20194;-47
2023/06/12 00:19:11;;;;;;;6.30;5.70;;;25.70;41.00;;;;;;5009688;28;20452;-48
2023/06/12 00:21:37;;;;;;;6.53;6.03;;;25.90;41.10;;;;;;5013741;28;20544;-47
2023/06/12 00:24:08;;;;;;;6.63;6.13;;;26.10;40.60;;;;;;5010445;28;20228;-52
2023/06/12 00:26:37;;;;;;;6.10;5.50;;;26.20;40.30;;;;;;5008778;28;20676;-47
2023/06/12 00:29:02;;;;;;;5.93;5.43;;;26.40;39.70;;;;;;5005614;28;20974;-48
2023/06/12 00:31:28;;;;;;;7.33;6.13;;;26.40;39.00;;;;;;5004734;28;20444;-49
2023/06/12 00:33:54;;;;;;;6.10;5.60;;;26.60;38.90;;;;;;5002532;28;20190;-48
2023/06/12 00:36:19;;;;;;;6.00;5.60;;;26.70;38.80;;;;;;4995558;28;20190;-48
2023/06/12 00:38:45;;;;;;;6.13;5.67;;;26.80;38.20;;;;;;5010239;28;20206;-48
2023/06/12 00:41:10;;;;;;;6.67;6.10;;;26.80;37.90;;;;;;5004807;28;20194;-50
2023/06/12 00:43:36;;;;;;;7.63;6.33;;;26.40;38.80;;;;;;5003863;28;21022;-48
2023/06/12 00:46:03;;;;;;;6.20;5.80;;;26.50;39.10;;;;;;5002815;28;20359;-48
2023/06/12 00:48:29;;;;;;;6.47;5.97;;;26.60;39.40;;;;;;5004905;28;20940;-48
2023/06/12 00:50:56;;;;;;;5.67;5.27;;;26.50;38.30;;;;;;5000489;28;20863;-48
2023/06/12 00:53:22;;;;;;;6.47;5.83;;;26.40;38.00;;;;;;5000805;28;20536;-49
2023/06/12 00:55:47;;;;;;;13.50;5.90;;;26.30;39.00;;;;;;5002969;28;20487;-47
2023/06/12 00:58:13;;;;;;;6.40;5.90;;;26.20;39.10;;;;;;5002023;28;20225;-49
2023/06/12 01:00:38;;;;;;;6.07;5.67;;;26.20;38.70;;;;;;5009185;28;20194;-47
2023/06/12 01:03:07;;;;;;;5.87;5.37;;;26.10;38.90;;;;;;5011090;28;20229;-47
2023/06/12 01:05:37;;;;;;;6.50;6.00;;;26.10;38.80;;;;;;5011616;28;20639;-47
2023/06/12 01:08:26;;;;;;;5.40;4.97;;;26.00;39.50;;;;;;5008075;28;20545;-51
2023/06/12 01:11:12;;;;;;;6.33;5.80;;;26.10;39.40;;;;;;5002879;28;20480;-49
2023/06/12 01:13:38;;;;;;;6.70;6.10;;;26.00;39.00;;;;;;5006360;28;20928;-51
2023/06/12 01:16:04;;;;;;;5.83;5.33;;;25.80;39.40;;;;;;5010563;28;20432;-49
2023/06/12 01:18:32;;;;;;;7.57;5.80;;;25.60;40.20;;;;;;5006345;28;20495;-47
2023/06/12 01:21:01;;;;;;;6.57;6.07;;;25.80;39.80;;;;;;5007094;28;20920;-51
2023/06/12 01:23:58;;;;;;;5.90;5.30;;;26.00;39.30;;;;;;5011883;28;20495;-49
2023/06/12 01:27:03;;;;;;;5.87;5.47;;;26.10;39.40;;;;;;5007725;28;20460;-48
2023/06/12 01:29:50;;;;;;;7.10;5.60;;;26.20;38.90;;;;;;5007623;28;20464;-48
2023/06/12 01:32:16;;;;;;;5.33;4.93;;;26.00;38.60;;;;;;5006748;28;20448;-48
2023/06/12 01:34:56;;;;;;;5.97;5.53;;;25.90;39.30;;;;;;5010116;28;20440;-49
2023/06/12 01:37:43;;;;;;;6.40;5.90;;;25.80;39.40;;;;;;5011137;28;20452;-49
2023/06/12 01:40:12;;;;;;;5.97;5.47;;;25.80;39.40;;;;;;5006220;28;20973;-49
2023/06/12 01:42:38;;;;;;;6.33;5.83;;;25.90;39.70;;;;;;5009713;28;20484;-47
2023/06/12 01:45:05;;;;;;;5.43;5.03;;;26.00;39.50;;;;;;5011573;28;20442;-52
2023/06/12 01:47:31;;;;;;;5.57;5.07;;;26.10;39.10;;;;;;5004596;28;20456;-47
2023/06/12 01:49:56;;;;;;;7.03;5.83;;;26.10;39.20;;;;;;5007108;28;20510;-48
2023/06/12 01:52:22;;;;;;;6.70;6.10;;;26.20;39.00;;;;;;5005927;28;20194;-52
2023/06/12 01:54:47;;;;;;;10.03;5.90;;;26.30;39.00;;;;;;5000687;28;20198;-50
2023/06/12 01:57:14;;;;;;;6.57;6.07;;;26.30;38.90;;;;;;5015742;28;20268;-53
2023/06/12 01:59:39;;;;;;;5.60;5.20;;;26.20;39.20;;;;;;4996825;28;20623;-54
2023/06/12 02:02:05;;;;;;;6.20;5.63;;;26.10;39.50;;;;;;5008383;28;20563;-54
2023/06/12 02:04:31;;;;;;;6.60;6.03;;;26.10;39.70;;;;;;5004593;28;20253;-53
2023/06/12 02:06:57;;;;;;;7.43;5.67;;;26.10;39.80;;;;;;5003978;28;20216;-51
2023/06/12 02:09:23;;;;;;;6.60;6.10;;;25.90;39.80;;;;;;5004110;28;20441;-53
2023/06/12 02:11:49;;;;;;;5.53;5.03;;;26.00;40.10;;;;;;5001380;28;20190;-51
2023/06/12 02:14:15;;;;;;;6.10;5.60;;;26.10;39.70;;;;;;5002623;28;20643;-51
2023/06/12 02:16:41;;;;;;;5.63;5.10;;;26.10;39.50;;;;;;4998652;28;20565;-50
2023/06/12 02:19:07;;;;;;;6.30;5.80;;;26.10;39.70;;;;;;5003419;28;20449;-52
2023/06/12 02:21:32;;;;;;;8.20;6.00;;;26.20;39.30;;;;;;5007123;28;20194;-52
2023/06/12 02:23:58;;;;;;;5.87;5.47;;;26.30;39.30;;;;;;5005073;28;20256;-51
2023/06/12 02:26:23;;;;;;;5.80;5.30;;;26.30;39.20;;;;;;5002296;28;20202;-51
2023/06/12 02:29:12;;;;;;;6.70;6.00;;;26.30;39.30;;;;;;5003555;28;20190;-50
2023/06/12 02:31:38;;;;;;;6.57;5.97;;;26.40;39.20;;;;;;4999209;28;20208;-50
2023/06/12 02:34:04;;;;;;;5.70;5.20;;;26.40;39.30;;;;;;5005701;28;20587;-52
2023/06/12 02:36:30;;;;;;;6.27;5.77;;;26.40;39.10;;;;;;5004043;28;22069;-51
2023/06/12 02:38:56;;;;;;;7.50;6.60;;;26.40;39.20;;;;;;5002712;28;20198;-51
2023/06/12 02:41:22;;;;;;;5.80;5.40;;;26.40;39.30;;;;;;5001994;28;20241;-50
2023/06/12 02:43:48;;;;;;;6.17;5.77;;;26.50;39.40;;;;;;4999716;28;20869;-51
2023/06/12 02:46:14;;;;;;;7.00;5.60;;;26.50;39.40;;;;;;5002280;28;20441;-53
2023/06/12 02:48:39;;;;;;;6.17;5.67;;;26.50;39.30;;;;;;5002536;28;21485;-51
2023/06/12 02:51:05;;;;;;;6.67;6.17;;;26.50;39.40;;;;;;5003344;28;20198;-52
2023/06/12 02:53:31;;;;;;;6.07;5.67;;;26.50;39.20;;;;;;5005886;28;20201;-52
2023/06/12 02:55:57;;;;;;;5.43;5.03;;;26.50;39.00;;;;;;5002615;28;20201;-51
2023/06/12 02:58:22;;;;;;;6.20;5.73;;;26.40;39.30;;;;;;5000541;28;20190;-54
2023/06/12 03:00:48;;;;;;;6.00;5.50;;;26.40;38.80;;;;;;4999691;28;20262;-51
2023/06/12 03:03:14;;;;;;;6.10;5.70;;;26.30;38.80;;;;;;5000287;28;20219;-52
2023/06/12 03:05:41;;;;;;;6.10;5.60;;;26.20;39.30;;;;;;5006075;28;20194;-48
2023/06/12 03:08:08;;;;;;;7.20;6.50;;;26.10;39.70;;;;;;5002303;28;20194;-52
2023/06/12 03:10:34;;;;;;;7.27;6.57;;;26.00;39.50;;;;;;5000204;28;20448;-52
2023/06/12 03:13:00;;;;;;;7.60;7.00;;;26.00;39.60;;;;;;5006356;28;20964;-52
2023/06/12 03:15:26;;;;;;;6.67;6.03;;;26.00;39.60;;;;;;5003169;28;20552;-51
2023/06/12 03:17:52;;;;;;;7.47;6.77;;;25.90;40.00;;;;;;5004467;28;20496;-49
2023/06/12 03:20:18;;;;;;;6.80;6.30;;;25.90;40.20;;;;;;4999983;28;20469;-48
2023/06/12 03:22:43;;;;;;;7.53;6.93;;;25.80;39.70;;;;;;5000908;28;20224;-52
2023/06/12 03:25:15;;;;;;;6.33;5.83;;;25.70;40.00;;;;;;5001422;28;20209;-52
2023/06/12 03:27:41;;;;;;;5.93;5.53;;;25.70;40.60;;;;;;5004833;28;20673;-48
2023/06/12 03:30:07;;;;;;;5.90;5.50;;;25.70;40.50;;;;;;5002755;28;20458;-53
2023/06/12 03:32:32;;;;;;;7.00;6.50;;;25.70;40.50;;;;;;5002926;28;20809;-50
2023/06/12 03:34:58;;;;;;;7.43;6.67;;;25.70;40.10;;;;;;5002382;28;20445;-52
2023/06/12 03:37:27;;;;;;;6.70;6.10;;;25.70;40.20;;;;;;5001154;28;20267;-48
2023/06/12 03:39:53;;;;;;;6.47;6.00;;;25.60;40.30;;;;;;5002041;28;20190;-51
2023/06/12 03:42:19;;;;;;;7.00;6.50;;;25.60;41.10;;;;;;5000602;28;20460;-52
2023/06/12 03:44:44;;;;;;;6.30;5.90;;;25.60;41.00;;;;;;5000395;28;20202;-52
2023/06/12 03:47:11;;;;;;;6.67;6.17;;;25.50;40.90;;;;;;4999564;28;20252;-52
2023/06/12 03:49:39;;;;;;;6.80;6.20;;;25.60;40.90;;;;;;5002212;28;20281;-52
2023/06/12 03:52:04;;;;;;;6.93;6.40;;;25.60;40.80;;;;;;5003558;28;20788;-52
2023/06/12 03:54:30;;;;;;;7.80;6.10;;;25.60;40.90;;;;;;5000006;28;20447;-51
2023/06/12 03:56:56;;;;;;;6.27;5.77;;;25.50;41.20;;;;;;5001389;28;20193;-50
2023/06/12 03:59:21;;;;;;;5.77;5.37;;;25.50;41.10;;;;;;5006521;28;20202;-49
2023/06/12 04:01:48;;;;;;;5.77;5.37;;;25.50;41.30;;;;;;4999048;28;20337;-51
2023/06/12 04:04:14;;;;;;;7.27;6.67;;;25.50;41.20;;;;;;4999505;28;20984;-49
2023/06/12 04:06:41;;;;;;;7.87;7.27;;;25.60;41.20;;;;;;5004326;28;20449;-50
2023/06/12 04:09:12;;;;;;;6.60;6.00;;;25.60;41.10;;;;;;5003832;28;20982;-48
2023/06/12 04:11:41;;;;;;;8.30;6.60;;;25.70;41.10;;;;;;5006051;28;20453;-49
2023/06/12 04:14:07;;;;;;;6.87;6.27;;;25.70;41.10;;;;;;5008778;28;20445;-47
2023/06/12 04:16:33;;;;;;;7.70;7.03;;;25.80;41.00;;;;;;5010115;28;20523;-52
2023/06/12 04:19:03;;;;;;;7.60;6.30;;;25.70;41.10;;;;;;5010748;28;20962;-50
2023/06/12 04:21:32;;;;;;;6.60;6.00;;;25.80;41.10;;;;;;5001494;28;20482;-50
2023/06/12 04:24:00;;;;;;;7.03;6.33;;;25.80;41.00;;;;;;5007179;28;21048;-48
2023/06/12 04:26:27;;;;;;;6.40;5.80;;;25.80;41.10;;;;;;5005047;28;20448;-48
2023/06/12 04:28:54;;;;;;;9.10;6.80;;;25.80;41.10;;;;;;5002681;28;21100;-51
2023/06/12 04:31:20;;;;;;;6.57;5.97;;;25.90;41.10;;;;;;5002416;28;20448;-49
2023/06/12 04:33:51;;;;;;;8.33;6.97;;;25.90;41.70;;;;;;5007282;28;21001;-50
2023/06/12 04:36:17;;;;;;;6.53;6.13;;;25.90;41.10;;;;;;5011278;28;21229;-53
2023/06/12 04:38:50;;;;;;;6.87;6.33;;;26.00;41.00;;;;;;5010256;28;20437;-47
2023/06/12 04:41:20;;;;;;;7.20;6.70;;;26.00;40.80;;;;;;5010507;28;20471;-48
2023/06/12 04:43:49;;;;;;;5.90;5.30;;;26.10;40.80;;;;;;5001801;28;20572;-52
2023/06/12 04:46:19;;;;;;;6.87;6.30;;;26.10;40.80;;;;;;5006979;28;20458;-50
2023/06/12 04:48:45;;;;;;;7.00;6.30;;;26.10;40.90;;;;;;5007805;28;20449;-48
2023/06/12 04:51:11;;;;;;;5.83;5.33;;;26.10;40.90;;;;;;5004337;28;20973;-50
2023/06/12 04:53:39;;;;;;;6.50;6.10;;;26.10;41.10;;;;;;5003163;28;20536;-49
2023/06/12 04:56:08;;;;;;;6.87;6.03;;;26.10;41.00;;;;;;5007689;28;20240;-48
2023/06/12 04:58:41;;;;;;;7.33;6.63;;;26.10;40.90;;;;;;5004735;28;20806;-48
2023/06/12 05:01:06;;;;;;;6.80;6.20;;;26.10;41.10;;;;;;5006891;28;20488;-50
2023/06/12 05:03:33;;;;;;;7.10;6.50;;;26.10;40.90;;;;;;5005773;28;21014;-50
2023/06/12 05:05:59;;;;;;;6.03;5.63;;;25.80;41.60;;;;;;5005840;28;20193;-48
2023/06/12 05:08:25;;;;;;;7.73;6.53;;;25.60;42.00;;;;;;5002450;28;20980;-51
2023/06/12 05:10:51;;;;;;;7.87;7.27;;;25.70;41.90;;;;;;5001231;28;20441;-48
2023/06/12 05:13:17;;;;;;;6.93;6.43;;;25.70;42.10;;;;;;5005946;28;21526;-48
2023/06/12 05:15:43;;;;;;;6.80;6.10;;;25.60;42.40;;;;;;5005721;28;20437;-52
2023/06/12 05:18:08;;;;;;;7.30;6.70;;;25.70;42.40;;;;;;5006679;28;20198;-47
2023/06/12 05:20:34;;;;;;;6.67;6.17;;;25.80;42.20;;;;;;5009368;28;20194;-48
2023/06/12 05:23:00;;;;;;;7.00;6.30;;;25.90;41.90;;;;;;5004189;28;20218;-48
2023/06/12 05:25:25;;;;;;;6.97;6.30;;;26.00;41.90;;;;;;5003572;28;20190;-51
2023/06/12 05:27:51;;;;;;;7.10;6.50;;;26.00;41.90;;;;;;5001937;28;20194;-49
2023/06/12 05:30:17;;;;;;;7.97;6.53;;;26.00;42.00;;;;;;5007585;28;20654;-51
2023/06/12 05:32:42;;;;;;;7.10;6.60;;;26.00;42.20;;;;;;5000768;28;20212;-52
2023/06/12 05:35:08;;;;;;;7.63;7.00;;;26.00;42.90;;;;;;5010032;28;20543;-50
2023/06/12 05:37:34;;;;;;;7.20;6.60;;;26.00;42.20;;;;;;5003374;28;20206;-49
2023/06/12 05:40:00;;;;;;;7.40;6.80;;;26.10;42.30;;;;;;5006612;28;20465;-50
2023/06/12 05:42:25;;;;;;;7.87;7.07;;;26.00;42.60;;;;;;5009923;28;20204;-48
2023/06/12 05:44:51;;;;;;;6.80;6.30;;;26.10;42.60;;;;;;5011698;28;20671;-52
2023/06/12 05:47:17;;;;;;;7.10;6.60;;;26.10;42.50;;;;;;5007146;28;20210;-50
2023/06/12 05:49:42;;;;;;;6.50;6.00;;;26.10;42.50;;;;;;5010049;28;20356;-49
2023/06/12 05:52:10;;;;;;;7.70;7.00;;;26.10;42.40;;;;;;5001399;28;20207;-49
2023/06/12 05:54:36;;;;;;;6.63;6.13;;;26.30;42.20;;;;;;5005453;28;20281;-48
2023/06/12 05:57:02;;;;;;;7.33;6.63;;;26.40;42.30;;;;;;5009325;28;20440;-48
2023/06/12 05:59:28;;;;;;;7.37;6.77;;;25.80;43.30;;;;;;5012312;28;20193;-49
2023/06/12 06:01:55;;;;;;;7.50;6.97;;;25.80;43.20;;;;;;5006844;28;20530;-49
2023/06/12 06:04:21;;;;;;;8.50;7.80;;;26.00;43.00;;;;;;5012608;28;20221;-54
2023/06/12 06:06:47;;;;;;;6.30;5.80;;;26.10;42.80;;;;;;5010332;28;20736;-52
2023/06/12 06:09:13;;;;;;;6.33;5.83;;;26.20;42.50;;;;;;5009153;28;20205;-49
2023/06/12 06:11:39;;;;;;;6.73;6.23;;;26.40;42.50;;;;;;5008397;28;20288;-48
2023/06/12 06:14:05;;;;;;;8.13;7.43;;;26.60;42.30;;;;;;5001621;28;20464;-51
2023/06/12 06:16:31;;;;;;;7.20;6.60;;;26.70;42.00;;;;;;4999018;28;20500;-49
2023/06/12 06:18:56;;;;;;;7.70;7.03;;;26.80;42.00;;;;;;5011906;28;20657;-48
2023/06/12 06:21:22;;;;;;;7.83;7.20;;;26.80;41.90;;;;;;4999814;28;20222;-51
2023/06/12 06:23:48;;;;;;;6.73;6.13;;;27.00;41.90;;;;;;5008699;28;20240;-49
2023/06/12 06:26:13;;;;;;;7.00;6.37;;;27.00;42.00;;;;;;5006780;28;20567;-49
2023/06/12 06:28:39;;;;;;;8.43;7.57;;;27.10;41.90;;;;;;5012455;28;20198;-49
2023/06/12 06:31:09;;;;;;;7.60;6.77;;;27.10;42.00;;;;;;5009114;28;20190;-48
2023/06/12 06:33:35;;;;;;;8.00;7.30;;;27.00;42.50;;;;;;5006678;28;20185;-47
2023/06/12 06:36:01;;;;;;;23.37;8.07;;;26.90;42.10;;;;;;5006192;28;20445;-46
2023/06/12 06:38:27;;;;;;;8.73;7.50;;;26.80;42.30;;;;;;5005004;28;20442;-50
2023/06/12 06:40:52;;;;;;;13.33;7.50;;;26.50;43.50;;;;;;5007492;28;21002;-46
2023/06/12 06:43:19;;;;;;;6.53;6.03;;;26.70;43.10;;;;;;5003309;28;20237;-48
2023/06/12 06:45:44;;;;;;;7.43;6.83;;;26.30;42.50;;;;;;5004300;28;20574;-55
2023/06/12 06:48:12;;;;;;;7.60;7.00;;;26.00;43.30;;;;;;4984427;28;20532;-49
2023/06/12 06:50:39;;;;;;;8.57;7.77;;;25.80;44.30;;;;;;5002098;28;20673;-51
2023/06/12 06:53:04;;;;;;;7.63;6.70;;;25.90;44.60;;;;;;5008971;28;20801;-49
2023/06/12 06:55:30;;;;;;;7.70;7.10;;;25.80;44.50;;;;;;5010028;28;20437;-47
2023/06/12 06:57:56;;;;;;;6.90;6.40;;;25.70;44.50;;;;;;5004046;28;20680;-46
2023/06/12 07:00:22;;;;;;;12.80;6.30;;;26.10;43.90;;;;;;5001143;28;20204;-46
2023/06/12 07:02:50;;;;;;;7.70;7.10;;;26.30;43.60;;;;;;5002651;28;20242;-49
2023/06/12 07:05:16;;;;;;;6.93;6.40;;;26.40;43.90;;;;;;4999534;28;20464;-47
2023/06/12 07:07:44;;;;;;;10.20;7.40;;;26.40;43.20;;;;;;5005424;28;20916;-45
2023/06/12 07:10:10;;;;;;;7.43;6.63;;;26.20;43.90;;;;;;5008497;28;20201;-46
2023/06/12 07:12:35;;;;;;;7.50;6.83;;;26.30;44.50;;;;;;4992095;28;20531;-49
2023/06/12 07:15:01;;;;;;;7.30;6.63;;;26.50;43.40;;;;;;5007443;28;20361;-51
2023/06/12 07:17:27;;;;;;;9.40;6.30;;;26.90;42.90;;;;;;5001724;28;20194;-49
2023/06/12 07:19:52;;;;;;;7.17;6.67;;;27.00;42.50;;;;;;5007614;28;20449;-47
2023/06/12 07:22:18;;;;;;;7.40;6.70;;;27.00;42.00;;;;;;5006840;28;20277;-47
2023/06/12 07:24:43;;;;;;;8.73;7.10;;;27.00;42.60;;;;;;5005107;28;20713;-49
2023/06/12 07:27:10;;;;;;;22.40;8.20;;;27.20;42.40;;;;;;5005362;28;20730;-51
2023/06/12 07:29:36;;;;;;;7.07;6.47;;;27.20;41.80;;;;;;5006749;28;20193;-47
2023/06/12 07:32:01;;;;;;;7.80;6.90;;;27.20;41.90;;;;;;5006157;28;20806;-49
2023/06/12 07:34:27;;;;;;;8.97;7.30;;;27.30;41.90;;;;;;5010536;28;20189;-49
2023/06/12 07:36:52;;;;;;;6.93;6.43;;;27.40;41.70;;;;;;5009339;28;20272;-47
2023/06/12 07:39:18;;;;;;;7.60;6.90;;;27.60;41.00;;;;;;5010198;28;20198;-46
2023/06/12 07:41:44;;;;;;;7.07;6.57;;;27.80;40.60;;;;;;5010640;28;20205;-46
2023/06/12 07:44:13;;;;;;;7.37;6.67;;;27.90;39.80;;;;;;5011148;28;20380;-46
2023/06/12 07:46:41;;;;;;;7.80;7.10;;;28.20;39.80;;;;;;5007485;28;20269;-47
2023/06/12 07:49:07;;;;;;;6.80;6.30;;;28.20;39.10;;;;;;4996164;28;20444;-47
2023/06/12 07:51:33;;;;;;;6.63;6.10;;;28.20;39.40;;;;;;5010817;28;20920;-47
2023/06/12 07:53:58;;;;;;;6.53;5.93;;;28.20;38.70;;;;;;5013012;28;20221;-47
2023/06/12 07:56:24;;;;;;;6.80;6.20;;;28.50;38.40;;;;;;5015108;28;20721;-47
2023/06/12 07:58:51;;;;;;;6.90;6.20;;;28.60;38.20;;;;;;5014910;28;20194;-47
2023/06/12 08:01:18;;;;;;;7.03;6.53;;;28.60;37.60;;;;;;5012069;28;20265;-46
2023/06/12 08:03:43;;;;;;;6.17;5.77;;;28.60;37.40;;;;;;5014562;28;20487;-46
2023/06/12 08:06:11;;;;;;;6.80;5.97;;;28.70;37.60;;;;;;5001739;28;20784;-49
2023/06/12 08:08:43;;;;;;;26.93;11.40;;;28.50;38.00;;;;;;5014837;28;20193;-49
2023/06/12 08:11:09;;;;;;;6.83;6.30;;;28.10;38.30;;;;;;5012549;28;20464;-47
2023/06/12 08:13:35;;;;;;;6.77;6.27;;;28.10;38.70;;;;;;4998672;28;20425;-46
2023/06/12 08:16:02;;;;;;;6.23;5.73;;;28.60;38.20;;;;;;4995140;28;20429;-46
2023/06/12 08:18:28;;;;;;;7.27;6.57;;;29.00;35.90;;;;;;5010118;28;20209;-50
2023/06/12 08:20:53;;;;;;;11.23;6.57;;;29.60;35.90;;;;;;4996604;28;20453;-46
2023/06/12 08:23:20;;;;;;;7.23;5.90;;;29.40;35.70;;;;;;4999643;28;20707;-50
2023/06/12 08:25:45;;;;;;;6.63;6.23;;;29.60;36.40;;;;;;4994906;28;20285;-51
2023/06/12 08:28:11;;;;;;;8.33;6.70;;;30.10;35.50;;;;;;5007234;28;20565;-49
2023/06/12 08:30:36;;;;;;;15.70;6.83;;;30.30;35.30;;;;;;5006902;28;20210;-52
2023/06/12 08:33:03;;;;;;;6.73;6.03;;;30.50;35.20;;;;;;5007839;28;20765;-53
2023/06/12 08:35:29;;;;;;;6.03;5.43;;;30.80;32.10;;;;;;4994766;28;20230;-53
2023/06/12 08:37:54;;;;;;;8.87;5.97;;;31.00;31.90;;;;;;4994405;28;20444;-54
2023/06/12 08:42:51;;;;;;;6.03;5.63;;;30.20;32.30;;;;;;4969087;28;20301;-51
2023/06/12 08:45:18;;;;;;;6.17;5.67;;;30.10;32.60;;;;;;4973027;28;20957;-51
2023/06/12 08:47:47;;;;;;;6.40;6.00;;;29.80;31.50;;;;;;4972141;28;20544;-53
2023/06/12 08:50:16;;;;;;;6.13;5.60;;;29.80;32.70;;;;;;4970762;28;20450;-50
2023/06/12 08:52:42;;;;;;;6.30;5.80;;;29.80;31.50;;;;;;4972311;28;20443;-50
2023/06/12 08:55:09;;;;;;;8.57;5.50;;;29.80;31.90;;;;;;4972878;28;20801;-51
2023/06/12 08:57:38;;;;;;;6.40;5.77;;;29.90;32.80;;;;;;4974717;28;20421;-51
2023/06/12 09:00:10;;;;;;;6.37;5.87;;;29.80;32.20;;;;;;4975615;28;20415;-49
2023/06/12 09:02:35;;;;;;;7.03;5.20;;;29.80;31.30;;;;;;4973706;28;20549;-47
2023/06/12 09:05:06;;;;;;;7.20;5.43;;;29.90;32.00;;;;;;4974404;28;20525;-51
2023/06/12 09:07:36;;;;;;;6.40;5.80;;;29.90;31.00;;;;;;4971324;28;20195;-51
2023/06/12 09:10:02;;;;;;;7.97;5.60;;;29.90;31.20;;;;;;4975452;28;20444;-48
2023/06/12 09:12:29;;;;;;;6.63;6.13;;;30.20;31.10;;;;;;4968562;28;20451;-50
2023/06/12 09:14:59;;;;;;;6.20;5.67;;;30.20;30.40;;;;;;4971719;28;20203;-49
2023/06/12 09:17:28;;;;;;;5.93;5.53;;;30.50;30.30;;;;;;4973730;28;20446;-47
2023/06/12 09:19:54;;;;;;;6.63;6.03;;;30.80;30.50;;;;;;4968197;28;20489;-54
2023/06/12 09:22:21;;;;;;;5.80;5.40;;;30.90;30.30;;;;;;4970909;28;20438;-49
2023/06/12 09:24:47;;;;;;;6.30;5.80;;;30.90;30.40;;;;;;4974114;28;20294;-47
2023/06/12 09:27:13;;;;;;;7.30;6.63;;;31.20;30.60;;;;;;4973647;28;20451;-47
2023/06/12 09:29:40;;;;;;;6.20;5.43;;;31.20;30.20;;;;;;4971731;28;20878;-49
2023/06/12 09:32:09;;;;;;;6.67;6.13;;;31.40;29.70;;;;;;4977161;28;20922;-49
2023/06/12 09:34:35;;;;;;;5.63;5.23;;;31.50;29.90;;;;;;4988044;28;21409;-50
2023/06/12 09:37:03;;;;;;;6.20;5.80;;;31.60;29.80;;;;;;4970586;28;20496;-48
2023/06/12 09:39:30;;;;;;;6.40;5.90;;;31.60;29.40;;;;;;4969735;28;20586;-50
2023/06/12 09:41:56;;;;;;;5.93;5.40;;;31.50;29.50;;;;;;4969324;28;20515;-49
2023/06/12 09:44:24;;;;;;;6.17;5.70;;;31.40;29.00;;;;;;4969236;28;20490;-50
2023/06/12 09:46:50;;;;;;;11.93;6.80;;;31.10;29.20;;;;;;4968875;28;20447;-48
2023/06/12 09:49:22;;;;;;;6.17;5.60;;;31.40;29.10;;;;;;4979394;28;20491;-48
2023/06/12 09:51:50;;;;;;;6.63;5.97;;;31.60;28.90;;;;;;4969676;28;20536;-47
2023/06/12 09:54:17;;;;;;;10.27;6.10;;;31.70;29.20;;;;;;4971793;28;20482;-47
2023/06/12 09:56:44;;;;;;;6.73;5.87;;;31.50;28.70;;;;;;4970798;28;20474;-48
2023/06/12 09:59:18;;;;;;;5.83;5.43;;;31.60;28.70;;;;;;4976700;28;20761;-49
2023/06/12 10:01:48;;;;;;;7.10;6.53;;;31.60;28.70;;;;;;4971672;28;20450;-52
2023/06/12 10:04:19;;;;;;;6.37;5.50;;;31.60;28.50;;;;;;4971809;28;20985;-49
2023/06/12 10:06:47;;;;;;;6.63;6.07;;;31.80;28.90;;;;;;4971452;28;20450;-47
2023/06/12 10:09:13;;;;;;;6.37;5.80;;;31.90;28.50;;;;;;4965556;28;20454;-48
2023/06/12 10:11:40;;;;;;;7.00;6.40;;;32.20;28.70;;;;;;4969510;28;20465;-46
2023/06/12 10:14:06;;;;;;;6.70;6.17;;;32.30;27.80;;;;;;4970438;28;20443;-46
2023/06/12 10:16:34;;;;;;;6.70;6.10;;;32.20;27.80;;;;;;4963633;28;20450;-50
2023/06/12 10:19:00;;;;;;;6.60;6.10;;;32.30;28.00;;;;;;4970056;28;20196;-46
2023/06/12 10:21:27;;;;;;;6.80;6.20;;;32.30;28.00;;;;;;4974090;28;20438;-46
2023/06/12 10:23:54;;;;;;;7.40;6.70;;;32.20;27.70;;;;;;4970149;28;20503;-48
2023/06/12 10:26:22;;;;;;;6.40;5.90;;;32.10;27.60;;;;;;4971340;28;20450;-48
2023/06/12 10:28:47;;;;;;;7.77;6.03;;;32.10;27.40;;;;;;4972134;28;20520;-46
2023/06/12 10:31:17;;;;;;;6.40;5.90;;;32.10;28.30;;;;;;4977714;28;20442;-47
2023/06/12 10:34:01;;;;;;;5.77;5.27;;;32.30;26.90;;;;;;4982028;28;20204;-46
2023/06/12 10:36:47;;;;;;;6.80;6.30;;;32.50;27.00;;;;;;4973109;28;20473;-46
2023/06/12 10:39:15;;;;;;;6.90;6.40;;;32.70;27.40;;;;;;4970108;28;20443;-49
2023/06/12 10:42:06;;;;;;;6.03;5.53;;;33.10;27.50;;;;;;4971222;28;20821;-47
2023/06/12 10:44:45;;;;;;;6.07;5.67;;;33.20;27.10;;;;;;4972905;28;20603;-47
2023/06/12 10:47:24;;;;;;;7.10;6.40;;;33.10;26.40;;;;;;4971198;28;20447;-47
2023/06/12 10:50:02;;;;;;;5.43;4.93;;;32.60;27.10;;;;;;4968751;28;20455;-51
2023/06/12 10:52:28;;;;;;;6.93;6.23;;;32.10;28.10;;;;;;4964560;28;20501;-48
2023/06/12 10:55:15;;;;;;;12.60;7.07;;;32.20;27.00;;;;;;4969213;28;20796;-48
2023/06/12 10:57:50;;;;;;;8.97;5.73;;;32.40;26.50;;;;;;4968578;28;20455;-47
2023/06/12 11:00:17;;;;;;;8.40;5.70;;;32.50;26.90;;;;;;4971343;28;20434;-46
2023/06/12 11:02:45;;;;;;;5.90;5.40;;;32.80;25.10;;;;;;4964800;28;20451;-47
2023/06/12 11:05:11;;;;;;;6.20;5.73;;;32.70;25.90;;;;;;4975101;28;20473;-46
2023/06/12 11:07:39;;;;;;;5.63;5.23;;;33.00;25.40;;;;;;4975296;28;20477;-47
2023/06/12 11:10:09;;;;;;;5.20;4.80;;;33.10;25.50;;;;;;4970725;28;20222;-47
2023/06/12 11:12:34;;;;;;;5.47;5.07;;;32.80;25.50;;;;;;4971759;28;20867;-48
2023/06/12 11:15:00;;;;;;;5.47;4.97;;;33.00;25.40;;;;;;4971936;28;20443;-47
2023/06/12 11:17:27;;;;;;;6.63;6.03;;;33.10;25.60;;;;;;4971305;28;20199;-47
2023/06/12 11:20:00;;;;;;;5.27;4.87;;;33.30;25.60;;;;;;4971532;28;20226;-46
2023/06/12 11:22:26;;;;;;;5.90;5.40;;;33.70;25.00;;;;;;4971467;28;20843;-47
2023/06/12 11:25:06;;;;;;;5.50;5.10;;;33.90;25.00;;;;;;4970158;28;20486;-51
2023/06/12 11:27:34;;;;;;;6.43;5.93;;;33.70;25.00;;;;;;4972097;28;20647;-51
2023/06/12 11:30:08;;;;;;;6.03;5.53;;;33.80;25.20;;;;;;4970143;28;20910;-47
2023/06/12 11:32:34;;;;;;;6.03;5.53;;;34.10;24.70;;;;;;4969545;28;20727;-46
2023/06/12 11:35:03;;;;;;;6.10;5.50;;;34.50;24.20;;;;;;4972222;28;20795;-46
2023/06/12 11:37:28;;;;;;;7.60;5.50;;;34.90;24.00;;;;;;4969957;28;20849;-49
2023/06/12 11:40:11;;;;;;;6.40;5.73;;;35.20;24.80;;;;;;4970679;28;20459;-47
2023/06/12 11:42:42;;;;;;;6.83;6.23;;;35.10;24.00;;;;;;4963794;28;20265;-48
2023/06/12 11:45:13;;;;;;;6.00;5.47;;;34.40;24.10;;;;;;4972301;28;20443;-48
2023/06/12 11:47:40;;;;;;;6.83;4.77;;;33.80;24.10;;;;;;4970227;28;22119;-49
2023/06/12 11:50:12;;;;;;;15.80;7.20;;;33.90;24.30;;;;;;4970286;28;20478;-48
2023/06/12 11:52:40;;;;;;;7.53;6.93;;;33.90;23.60;;;;;;4968793;28;20443;-53
2023/06/12 11:55:11;;;;;;;6.63;5.40;;;33.20;24.10;;;;;;4962726;28;20454;-47
2023/06/12 11:57:38;;;;;;;10.13;6.20;;;33.00;24.80;;;;;;4967790;28;20471;-47
2023/06/12 12:00:16;;;;;;;5.90;5.50;;;33.10;24.80;;;;;;4970702;28;20439;-48
2023/06/12 12:02:44;;;;;;;6.87;5.60;;;33.70;25.00;;;;;;4968732;28;20538;-49
2023/06/12 12:05:11;;;;;;;6.70;6.10;;;33.40;24.70;;;;;;4967669;28;20533;-47
2023/06/12 12:07:39;;;;;;;6.27;5.63;;;33.50;24.90;;;;;;4970248;28;20469;-52
2023/06/12 12:10:10;;;;;;;5.80;5.40;;;33.50;24.50;;;;;;4970566;28;20459;-47
2023/06/12 12:12:46;;;;;;;6.50;5.90;;;34.00;24.60;;;;;;4972847;28;20433;-48
2023/06/12 12:15:13;;;;;;;6.53;5.20;;;34.80;23.80;;;;;;4968929;28;20957;-47
2023/06/12 12:17:40;;;;;;;6.00;5.50;;;35.10;23.20;;;;;;4970807;28;20450;-48
2023/06/12 12:20:12;;;;;;;72.53;13.93;;;35.30;22.80;;;;;;4967531;28;20956;-53
2023/06/12 12:22:40;;;;;;;6.80;6.20;;;35.00;22.40;;;;;;4971152;28;20529;-48
2023/06/12 12:25:07;;;;;;;5.87;5.47;;;34.10;23.40;;;;;;4968946;28;20538;-47
2023/06/12 12:27:34;;;;;;;5.97;5.57;;;33.80;24.00;;;;;;4968790;28;20473;-50
2023/06/12 12:30:00;;;;;;;6.40;5.90;;;34.20;24.80;;;;;;4965594;28;20455;-48
2023/06/12 12:32:26;;;;;;;5.90;5.50;;;34.50;24.00;;;;;;4969266;28;20447;-50
2023/06/12 12:34:51;;;;;;;6.03;5.63;;;34.70;23.70;;;;;;4969980;28;20482;-47
2023/06/12 12:37:17;;;;;;;6.97;6.20;;;34.70;24.10;;;;;;4968077;28;20199;-47
2023/06/12 12:39:43;;;;;;;6.20;5.70;;;35.00;23.50;;;;;;4974112;28;20286;-48
2023/06/12 12:42:08;;;;;;;6.17;5.67;;;35.30;23.70;;;;;;4974075;28;20239;-47
2023/06/12 12:44:34;;;;;;;6.00;5.40;;;35.50;24.40;;;;;;4974138;28;20317;-48
2023/06/12 12:46:59;;;;;;;6.30;5.80;;;35.70;23.00;;;;;;4972399;28;20187;-52
2023/06/12 12:49:25;;;;;;;5.83;5.43;;;35.70;22.90;;;;;;4971207;28;20222;-51
2023/06/12 12:51:51;;;;;;;5.77;5.33;;;35.70;23.10;;;;;;4969259;28;20227;-52